PST,Max TemperatureF,Mean TemperatureF,Min TemperatureF,Max Dew PointF,MeanDew PointF,Min DewpointF,Max Humidity, Mean Humidity, Min Humidity, Max Sea Level PressureIn, Mean Sea Level PressureIn, Min Sea Level PressureIn, Max VisibilityMiles, Mean VisibilityMiles, Min VisibilityMiles, Max Wind SpeedMPH, Mean Wind SpeedMPH, Max Gust SpeedMPH,PrecipitationIn, CloudCover, Events, WindDirDegrees
2013-2-1,63,49,34,48,42,34,100,85,52,30.35,30.25,30.17,10,8,0,8,3,,0.00,1,,100
2013-2-2,55,48,41,48,44,39,100,90,66,30.36,30.28,30.22,10,10,7,15,7,,0.00,3,,180
2013-2-3,52,49,45,46,45,43,100,89,71,30.35,30.30,30.25,10,10,6,7,2,,0.00,8,,103
2013-2-4,52,46,39,46,43,37,100,91,77,30.25,30.13,30.03,10,9,0,10,6,17,0.00,5,,186
2013-2-5,55,49,43,48,45,43,100,89,77,30.15,30.05,29.98,10,10,3,16,10,25,0.14,7,,189
2013-2-6,52,46,39,46,44,39,100,90,77,30.16,30.07,29.93,10,9,5,20,9,35,0.62,7,,173
2013-2-7,43,40,36,41,39,36,100,96,89,30.14,30.05,30.01,10,10,9,15,9,20,0.39,6,,150
2013-2-8,48,39,30,43,38,30,100,89,71,30.31,30.25,30.14,10,9,0,20,7,25,0.00,3,,27
2013-2-9,52,43,34,45,40,34,100,92,61,30.33,30.31,30.29,10,10,5,9,4,,0.00,7,,58
2013-2-10,52,47,41,45,42,39,100,87,66,30.34,30.32,30.31,10,10,5,10,4,,0.00,8,,38
2013-2-11,54,50,45,46,41,36,100,80,59,30.46,30.40,30.33,10,9,2,12,5,16,0.00,7,,31
2013-2-12,54,50,46,52,47,45,100,97,89,30.55,30.51,30.46,10,6,1,9,4,,0.06,8,,54
2013-2-13,54,50,45,48,47,43,100,94,83,30.54,30.51,30.49,10,9,2,10,3,,0.00,7,,348
2013-2-14,55,47,39,48,45,39,100,91,77,30.54,30.49,30.41,10,9,0,20,6,25,0.00,1,,6
2013-2-15,61,50,39,48,46,39,100,88,57,30.40,30.29,30.22,10,9,3,7,3,,0.00,1,,317
2013-2-16,52,49,45,46,45,43,100,92,71,30.36,30.33,30.29,10,9,2,13,6,17,0.00,7,,351
2013-2-17,52,44,36,43,39,36,100,85,61,30.34,30.24,30.10,10,10,10,17,6,23,0.00,3,,25
2013-2-18,50,43,36,43,38,34,100,89,71,30.10,29.98,29.75,10,10,3,14,8,21,0.01,6,,171
2013-2-19,48,42,36,43,39,36,100,90,76,30.05,29.81,29.67,10,10,7,14,8,18,0.33,7,,126
2013-2-20,48,43,37,45,41,36,100,94,77,30.19,30.13,30.06,10,9,0,12,5,15,0.14,7,,170
2013-2-21,48,43,37,45,41,37,100,91,82,30.32,30.26,30.20,10,9,2,9,7,9,0.03,7,,166
2013-2-22,48,46,43,46,44,37,100,92,76,30.28,30.17,30.07,10,8,2,21,12,35,0.42,8,,206
2013-2-23,48,43,37,41,38,36,100,83,66,30.49,30.39,30.23,10,10,3,16,8,28,0.16,7,,326
2013-2-24,52,43,34,41,37,32,100,84,52,30.49,30.41,30.28,10,10,10,9,7,,655.34,2,,174
2013-2-25,48,45,41,39,37,34,86,71,60,30.44,30.41,30.36,10,10,10,15,12,,0.00,5,,274
2013-2-26,46,40,34,36,33,32,96,82,65,30.38,30.35,30.32,10,10,10,13,12,,0.00,3,,164
2013-2-27,57,51,45,52,49,43,100,88,61,30.32,30.28,30.26,10,8,2,12,7,18,0.27,8,,172
2013-2-28,55,54,52,54,52,50,100,97,93,30.52,30.40,30.27,10,8,2,12,9,22,0.25,8,,194